createdAt,value
2019-03-26T00:04:11.804Z,75.19
2019-03-26T00:06:55.183Z,75.70
2019-03-26T00:09:45.986Z,75.60
2019-03-26T00:12:29.043Z,75.55
2019-03-26T00:15:19.904Z,75.59
2019-03-26T00:18:02.772Z,75.98
2019-03-26T00:20:53.652Z,76.18
2019-03-26T00:23:37.134Z,75.78
2019-03-26T00:26:28.056Z,75.81
2019-03-26T00:29:31.211Z,76.02
2019-03-26T00:32:23.648Z,75.83
2019-03-26T00:35:27.252Z,75.76
2019-03-26T00:38:18.167Z,75.48
2019-03-26T00:41:01.822Z,75.61
2019-03-26T00:43:52.744Z,74.86
2019-03-26T00:46:35.953Z,74.96
2019-03-26T00:49:26.885Z,75.17
2019-03-26T00:52:29.622Z,75.22
2019-03-26T00:55:22.946Z,74.47
2019-03-26T00:58:25.241Z,74.92
2019-03-26T01:01:16.183Z,74.56
2019-03-26T01:03:58.996Z,73.95
2019-03-26T01:06:49.888Z,74.55
2019-03-26T01:09:32.738Z,74.07
2019-03-26T01:12:23.628Z,74.04
2019-03-26T01:15:07.267Z,73.75
2019-03-26T01:17:58.178Z,73.59
2019-03-26T01:20:41.812Z,73.75
2019-03-26T01:23:32.759Z,74.01
2019-03-26T01:26:35.454Z,73.32
2019-03-26T01:29:26.381Z,73.60
2019-03-26T01:32:09.243Z,73.39
2019-03-26T01:35:00.327Z,73.23
2019-03-26T01:37:43.186Z,72.74
2019-03-26T01:40:34.151Z,73.29
2019-03-26T01:43:17.550Z,73.36
2019-03-26T01:46:08.476Z,73.29
2019-03-26T01:48:52.039Z,73.47
2019-03-26T01:51:42.943Z,73.26
2019-03-26T01:54:25.991Z,73.32
2019-03-26T01:57:16.931Z,73.64
2019-03-26T02:00:08.211Z,73.27
2019-03-26T02:02:51.277Z,72.63
2019-03-26T02:05:42.206Z,72.09
2019-03-26T02:08:25.795Z,72.17
2019-03-26T02:11:16.713Z,71.04
2019-03-26T02:13:59.957Z,70.70
2019-03-26T02:16:50.922Z,70.55
2019-03-26T02:19:34.589Z,70.19
2019-03-26T02:22:25.515Z,69.28
2019-03-26T02:25:08.508Z,68.78
2019-03-26T02:27:59.476Z,68.34
2019-03-26T02:30:42.584Z,67.50
2019-03-26T02:33:33.493Z,66.63
2019-03-26T02:36:16.313Z,66.89
2019-03-26T02:39:08.646Z,67.35
2019-03-26T02:41:52.079Z,67.12
2019-03-26T02:44:43.001Z,66.69
2019-03-26T02:47:26.617Z,67.35
2019-03-26T02:50:17.527Z,66.78
2019-03-26T02:53:01.278Z,67.40
2019-03-26T02:55:52.217Z,67.26
2019-03-26T02:58:35.575Z,67.55
2019-03-26T03:01:18.523Z,67.22
2019-03-26T03:04:09.426Z,67.55
2019-03-26T03:06:52.370Z,67.83
2019-03-26T03:09:43.301Z,67.60
2019-03-26T03:12:26.742Z,68.12
2019-03-26T03:15:17.685Z,68.64
2019-03-26T03:18:21.060Z,68.82
2019-03-26T03:21:12.007Z,68.56
2019-03-26T03:23:55.230Z,68.85
2019-03-26T03:26:46.165Z,68.92
2019-03-26T03:29:29.489Z,69.22
2019-03-26T03:32:20.452Z,69.24
2019-03-26T03:35:03.872Z,68.60
2019-03-26T03:37:54.795Z,68.45
2019-03-26T03:40:37.848Z,67.71
2019-03-26T03:43:28.813Z,68.34
2019-03-26T03:46:12.138Z,68.45
2019-03-26T03:49:03.394Z,68.11
2019-03-26T03:51:47.023Z,68.39
2019-03-26T03:55:16.981Z,67.97
2019-03-26T03:58:00.625Z,67.60
2019-03-26T04:00:51.549Z,67.48
2019-03-26T04:03:34.934Z,67.69
2019-03-26T04:06:25.845Z,67.62
2019-03-26T04:09:08.750Z,67.69
2019-03-26T04:11:59.691Z,67.85
2019-03-26T04:14:42.578Z,68.09
2019-03-26T04:17:33.478Z,67.77
2019-03-26T04:20:16.449Z,66.86
2019-03-26T04:23:07.372Z,66.97
2019-03-26T04:25:51.159Z,66.46
2019-03-26T04:28:42.048Z,65.99
2019-03-26T04:31:25.455Z,65.95
2019-03-26T04:34:16.360Z,66.03
2019-03-26T04:37:00.143Z,65.68
2019-03-26T04:39:51.056Z,65.56
2019-03-26T04:42:34.590Z,65.60
2019-03-26T04:45:25.522Z,65.65
2019-03-26T04:48:08.667Z,65.89
2019-03-26T04:50:59.543Z,66.12
2019-03-26T04:53:43.024Z,65.31
2019-03-26T04:56:33.903Z,65.06
2019-03-26T04:59:16.749Z,65.41
2019-03-26T05:02:00.111Z,65.68
2019-03-26T05:04:51.051Z,66.03
2019-03-26T05:07:34.356Z,66.51
2019-03-26T05:10:25.266Z,66.84
2019-03-26T05:13:08.705Z,66.63
2019-03-26T05:15:59.610Z,66.97
2019-03-26T05:18:43.019Z,67.06
2019-03-26T05:21:33.928Z,67.08
2019-03-26T05:24:17.657Z,67.01
2019-03-26T05:27:08.569Z,67.05
2019-03-26T05:29:52.036Z,67.07
2019-03-26T05:32:43.013Z,67.10
2019-03-26T05:35:25.782Z,67.18
2019-03-26T05:38:16.723Z,67.08
2019-03-26T05:40:59.676Z,67.08
2019-03-26T05:43:50.600Z,67.30
2019-03-26T05:46:34.849Z,67.42
2019-03-26T05:49:25.762Z,67.55
2019-03-26T05:52:16.703Z,67.03
2019-03-26T05:55:19.799Z,66.55
2019-03-26T05:58:10.659Z,65.87
2019-03-26T06:00:53.585Z,66.03
2019-03-26T06:03:37.212Z,66.63
2019-03-26T06:06:28.110Z,66.23
2019-03-26T06:09:11.578Z,66.51
2019-03-26T06:12:02.426Z,66.87
2019-03-26T06:14:45.392Z,66.06
2019-03-26T06:17:29.005Z,66.10
2019-03-26T06:20:19.975Z,66.01
2019-03-26T06:23:10.846Z,65.70
2019-03-26T06:26:13.845Z,64.47
2019-03-26T06:29:04.724Z,64.93
2019-03-26T06:31:48.390Z,64.69
2019-03-26T06:34:39.287Z,64.92
2019-03-26T06:37:22.226Z,65.16
2019-03-26T06:40:13.461Z,65.75
2019-03-26T06:42:56.377Z,65.85
2019-03-26T06:45:47.256Z,66.18
2019-03-26T06:48:30.701Z,65.71
2019-03-26T06:51:21.628Z,65.42
2019-03-26T06:54:05.396Z,65.41
2019-03-26T06:56:56.326Z,65.81
2019-03-26T06:59:39.933Z,65.64
2019-03-26T07:02:30.983Z,65.64
2019-03-26T07:05:21.879Z,65.14
2019-03-26T07:08:05.495Z,65.17
2019-03-26T07:10:56.372Z,64.86
2019-03-26T07:13:40.084Z,64.79
2019-03-26T07:16:31.002Z,64.83
2019-03-26T07:19:14.740Z,64.92
2019-03-26T07:22:05.592Z,64.31
2019-03-26T07:24:49.107Z,63.59
2019-03-26T07:27:40.165Z,61.68
2019-03-26T07:30:42.253Z,60.71
2019-03-26T07:33:33.151Z,60.11
2019-03-26T07:36:17.981Z,59.46
2019-03-26T07:39:09.072Z,59.13
2019-03-26T07:41:52.282Z,58.62
2019-03-26T07:44:45.458Z,58.14
2019-03-26T07:47:48.136Z,57.35
2019-03-26T07:50:39.061Z,56.93
2019-03-26T07:53:21.909Z,56.98
2019-03-26T07:56:12.819Z,57.35
2019-03-26T07:58:55.667Z,58.48
2019-03-26T08:01:46.606Z,60.24
2019-03-26T08:04:29.815Z,62.18
2019-03-26T08:07:20.790Z,63.82
2019-03-26T08:10:04.531Z,64.84
2019-03-26T08:12:55.464Z,65.76
2019-03-26T08:15:38.315Z,65.64
2019-03-26T08:18:29.247Z,65.13
2019-03-26T08:21:12.155Z,64.95
2019-03-26T08:24:03.033Z,64.02
2019-03-26T08:26:46.784Z,63.24
2019-03-26T08:29:37.659Z,63.34
2019-03-26T08:32:20.826Z,63.14
2019-03-26T08:35:11.729Z,62.84
2019-03-26T08:37:55.437Z,62.07
2019-03-26T08:40:46.508Z,60.92
2019-03-26T08:43:29.919Z,60.19
2019-03-26T08:46:20.850Z,59.34
2019-03-26T08:49:05.355Z,58.61
2019-03-26T08:51:56.221Z,58.23
2019-03-26T08:54:39.204Z,56.82
2019-03-26T08:57:30.143Z,55.86
2019-03-26T09:00:13.536Z,54.76
2019-03-26T09:03:04.453Z,54.88
2019-03-26T09:05:47.386Z,55.44
2019-03-26T09:08:38.334Z,56.39
2019-03-26T09:11:21.819Z,56.43
2019-03-26T09:14:12.727Z,55.93
2019-03-26T09:16:56.458Z,56.61
2019-03-26T09:19:47.356Z,57.30
2019-03-26T09:22:30.458Z,57.42
2019-03-26T09:25:21.345Z,57.64
2019-03-26T09:28:04.465Z,57.80
2019-03-26T09:30:55.366Z,58.09
2019-03-26T09:33:38.903Z,56.92
2019-03-26T09:36:29.815Z,55.07
2019-03-26T09:39:13.406Z,55.35
2019-03-26T09:42:04.321Z,54.51
2019-03-26T09:44:47.469Z,54.41
2019-03-26T09:47:38.440Z,55.46
2019-03-26T09:50:42.064Z,54.84
2019-03-26T09:53:32.957Z,55.80
2019-03-26T09:56:28.325Z,56.45
2019-03-26T09:59:09.071Z,56.47
2019-03-26T10:01:52.716Z,56.84
2019-03-26T10:04:43.632Z,55.94
2019-03-26T10:07:26.925Z,55.85
2019-03-26T10:10:17.980Z,56.31
2019-03-26T10:13:00.826Z,56.26
2019-03-26T10:15:51.737Z,55.51
2019-03-26T10:18:35.306Z,55.39
2019-03-26T10:21:26.233Z,55.74
2019-03-26T10:24:09.557Z,55.26
2019-03-26T10:27:00.516Z,54.19
2019-03-26T10:29:43.784Z,53.28
2019-03-26T10:32:34.731Z,52.01
2019-03-26T10:35:38.055Z,52.38
2019-03-26T10:38:29.002Z,50.07
2019-03-26T10:41:19.933Z,49.80
2019-03-26T10:44:10.876Z,49.61
2019-03-26T10:47:01.814Z,49.21
2019-03-26T10:49:52.850Z,49.70
2019-03-26T10:52:35.971Z,49.96
2019-03-26T10:55:26.898Z,50.68
2019-03-26T10:58:10.540Z,51.00
2019-03-26T11:01:01.506Z,50.59
2019-03-26T11:03:44.802Z,51.44
2019-03-26T11:06:28.131Z,52.05
2019-03-26T11:09:25.362Z,52.14
2019-03-26T11:12:24.193Z,50.33
2019-03-26T11:15:15.318Z,51.21
2019-03-26T11:18:18.305Z,51.65
2019-03-26T11:21:09.215Z,52.49
2019-03-26T11:23:52.002Z,53.36
2019-03-26T11:26:42.960Z,54.06
2019-03-26T11:29:26.194Z,54.14
2019-03-26T11:32:17.134Z,53.60
2019-03-26T11:35:00.909Z,53.45
2019-03-26T11:37:51.820Z,53.34
2019-03-26T11:40:34.687Z,51.51
2019-03-26T11:43:25.616Z,51.07
2019-03-26T11:46:16.575Z,49.89
2019-03-26T11:49:00.199Z,49.26
2019-03-26T11:51:51.119Z,48.67
2019-03-26T11:54:34.934Z,48.76
2019-03-26T11:57:18.403Z,49.80
2019-03-26T12:00:48.693Z,50.51
2019-03-26T12:03:32.470Z,50.14
2019-03-26T12:06:23.441Z,51.18
2019-03-26T12:09:07.589Z,51.95
2019-03-26T12:11:58.497Z,52.03
2019-03-26T12:14:42.212Z,52.94
2019-03-26T12:17:33.163Z,52.85
2019-03-26T12:20:16.887Z,53.07
2019-03-26T12:23:07.844Z,53.44
2019-03-26T12:25:51.271Z,53.47
2019-03-26T12:28:42.190Z,53.22
2019-03-26T12:31:45.802Z,53.69
2019-03-26T12:34:36.789Z,54.02
2019-03-26T12:37:19.989Z,54.57
2019-03-26T12:40:11.150Z,55.02
2019-03-26T12:42:54.508Z,55.66
2019-03-26T12:45:37.744Z,55.91
2019-03-26T12:48:28.673Z,56.24
2019-03-26T12:51:12.225Z,56.77
2019-03-26T12:54:03.136Z,57.09
2019-03-26T12:56:46.587Z,59.61
2019-03-26T12:59:37.500Z,61.92
2019-03-26T13:02:21.041Z,63.54
2019-03-26T13:05:12.228Z,63.89
2019-03-26T13:08:03.147Z,64.03
2019-03-26T13:10:53.598Z,63.30
2019-03-26T13:13:38.723Z,62.14
2019-03-26T13:16:21.455Z,60.74
2019-03-26T13:19:51.380Z,60.62
2019-03-26T13:22:34.880Z,59.94
2019-03-26T13:25:25.843Z,58.72
2019-03-26T13:28:08.861Z,58.20
2019-03-26T13:30:59.763Z,57.79
2019-03-26T13:33:42.858Z,57.42
2019-03-26T13:36:33.798Z,56.52
2019-03-26T13:39:16.849Z,55.97
2019-03-26T13:42:07.809Z,55.84
2019-03-26T13:44:50.895Z,55.97
2019-03-26T13:47:34.123Z,56.05
2019-03-26T13:50:25.084Z,56.59
2019-03-26T13:53:16.008Z,56.33
2019-03-26T13:55:59.614Z,56.30
2019-03-26T13:58:50.510Z,56.84
2019-03-26T14:01:33.348Z,57.46
2019-03-26T14:04:24.276Z,58.32
2019-03-26T14:07:07.877Z,58.36
2019-03-26T14:09:58.800Z,59.13
2019-03-26T14:12:49.718Z,59.44
2019-03-26T14:15:32.908Z,59.63
2019-03-26T14:18:23.832Z,60.01
2019-03-26T14:21:14.759Z,60.42
2019-03-26T14:24:05.684Z,60.53
2019-03-26T14:26:56.615Z,61.08
2019-03-26T14:29:39.803Z,61.76
2019-03-26T14:32:30.697Z,62.11
2019-03-26T14:35:21.688Z,62.62
2019-03-26T14:38:05.183Z,62.86
2019-03-26T14:41:35.106Z,63.08
2019-03-26T14:44:17.969Z,63.00
2019-03-26T14:47:01.741Z,63.18
2019-03-26T14:49:52.780Z,64.47
2019-03-26T14:52:35.857Z,65.98
2019-03-26T14:55:26.759Z,67.34
2019-03-26T14:58:10.486Z,68.56
2019-03-26T15:01:01.445Z,69.52
2019-03-26T15:03:44.979Z,69.71
2019-03-26T15:06:35.937Z,69.37
2019-03-26T15:09:18.845Z,68.86
2019-03-26T15:12:09.793Z,67.25
2019-03-26T15:14:53.382Z,66.88
2019-03-26T15:17:44.300Z,66.63
2019-03-26T15:20:27.698Z,66.90
2019-03-26T15:23:18.587Z,67.51
2019-03-26T15:26:02.355Z,67.36
2019-03-26T15:28:53.244Z,66.49
2019-03-26T15:31:36.862Z,65.46
2019-03-26T15:34:36.021Z,65.83
2019-03-26T15:37:32.541Z,63.88
2019-03-26T15:40:23.476Z,63.18
2019-03-26T15:43:06.340Z,62.97
2019-03-26T15:46:00.555Z,63.08
2019-03-26T15:48:44.309Z,62.55
2019-03-26T15:51:35.311Z,62.18
2019-03-26T15:54:18.410Z,62.03
2019-03-26T15:57:09.333Z,61.81
2019-03-26T15:59:52.905Z,62.00
2019-03-26T16:02:43.839Z,61.23
2019-03-26T16:05:27.528Z,60.69
2019-03-26T16:08:18.470Z,59.67
2019-03-26T16:11:02.186Z,59.28
2019-03-26T16:13:45.694Z,59.80
2019-03-26T16:16:36.611Z,59.85
2019-03-26T16:19:32.811Z,59.74
2019-03-26T16:22:32.411Z,59.86
2019-03-26T16:25:23.350Z,60.38
2019-03-26T16:28:06.603Z,60.56
2019-03-26T16:30:57.518Z,61.05
2019-03-26T16:33:41.300Z,60.98
2019-03-26T16:36:59.336Z,61.08
2019-03-26T16:39:55.331Z,61.29
2019-03-26T16:42:46.209Z,61.42
2019-03-26T16:45:29.488Z,61.64
2019-03-26T16:48:20.398Z,61.98
2019-03-26T16:51:03.302Z,62.11
2019-03-26T16:53:54.172Z,62.19
2019-03-26T16:56:37.758Z,62.12
2019-03-26T16:59:28.622Z,62.55
2019-03-26T17:02:11.473Z,62.41
2019-03-26T17:05:02.378Z,62.54
2019-03-26T17:07:53.267Z,62.43
2019-03-26T17:10:44.175Z,62.53
2019-03-26T17:13:35.135Z,62.50
2019-03-26T17:16:18.239Z,62.21
2019-03-26T17:19:09.152Z,62.09
2019-03-26T17:21:52.428Z,62.15
2019-03-26T17:24:43.322Z,62.04
2019-03-26T17:27:29.139Z,62.13
2019-03-26T17:30:19.433Z,62.04
2019-03-26T17:33:02.738Z,62.32
2019-03-26T17:35:53.630Z,62.72
2019-03-26T17:38:37.310Z,62.76
2019-03-26T17:41:28.182Z,62.73
2019-03-26T17:44:11.873Z,62.68
2019-03-26T17:47:02.784Z,62.72
2019-03-26T17:49:45.888Z,62.96
2019-03-26T17:52:36.790Z,62.88
2019-03-26T17:55:20.285Z,62.90
2019-03-26T17:58:11.259Z,62.83
2019-03-26T18:00:54.692Z,62.82
2019-03-26T18:03:45.676Z,62.87
2019-03-26T18:06:36.559Z,62.97
2019-03-26T18:09:27.452Z,62.81
2019-03-26T18:12:10.358Z,62.66
2019-03-26T18:15:01.229Z,62.69
2019-03-26T18:17:44.342Z,62.71
2019-03-26T18:20:35.209Z,62.80
2019-03-26T18:23:19.011Z,62.76
2019-03-26T18:26:09.975Z,62.74
2019-03-26T18:28:55.418Z,62.88
2019-03-26T18:31:46.279Z,62.96
2019-03-26T18:34:29.595Z,62.61
2019-03-26T18:37:20.512Z,62.75
2019-03-26T18:40:03.499Z,62.60
2019-03-26T18:42:54.459Z,62.49
2019-03-26T18:45:38.054Z,62.51
2019-03-26T18:48:28.954Z,62.67
2019-03-26T18:51:11.974Z,62.78
2019-03-26T18:54:02.929Z,62.78
2019-03-26T18:56:45.700Z,62.83
2019-03-26T18:59:36.590Z,62.82
2019-03-26T19:02:27.517Z,62.52
2019-03-26T19:05:10.414Z,62.77
2019-03-26T19:08:01.409Z,62.81
2019-03-26T19:10:44.439Z,62.82
2019-03-26T19:13:27.711Z,62.79
2019-03-26T19:16:18.646Z,62.84
2019-03-26T19:19:21.937Z,62.39
2019-03-26T19:22:12.864Z,62.64
2019-03-26T19:24:55.695Z,62.76
2019-03-26T19:27:46.657Z,62.85
2019-03-26T19:30:29.602Z,62.86
2019-03-26T19:33:20.520Z,62.92
2019-03-26T19:36:04.310Z,63.05
2019-03-26T19:38:55.248Z,62.98
2019-03-26T19:41:38.724Z,62.90
2019-03-26T19:44:29.651Z,62.77
2019-03-26T19:47:12.982Z,62.62
2019-03-26T19:50:03.907Z,62.43
2019-03-26T19:52:47.466Z,62.58
2019-03-26T19:55:38.364Z,62.93
2019-03-26T19:58:21.649Z,63.07
2019-03-26T20:01:12.577Z,62.99
2019-03-26T20:03:55.525Z,62.88
2019-03-26T20:06:46.499Z,62.96
2019-03-26T20:09:29.747Z,63.06
2019-03-26T20:12:20.676Z,62.84
2019-03-26T20:15:04.097Z,63.15
2019-03-26T20:17:55.091Z,63.11
2019-03-26T20:20:38.883Z,63.06
2019-03-26T20:23:29.896Z,63.18
2019-03-26T20:26:12.979Z,63.03
2019-03-26T20:29:03.968Z,62.94
2019-03-26T20:31:47.021Z,63.09
2019-03-26T20:34:37.979Z,63.16
2019-03-26T20:37:21.786Z,63.08
2019-03-26T20:40:51.817Z,62.87
2019-03-26T20:43:37.628Z,62.79
2019-03-26T20:46:27.813Z,62.99
2019-03-26T20:49:18.716Z,62.93
2019-03-26T20:52:01.801Z,63.22
2019-03-26T20:54:52.714Z,63.16
2019-03-26T20:57:35.728Z,63.33
2019-03-26T21:01:13.380Z,63.01
2019-03-26T21:03:56.624Z,63.12
2019-03-26T21:06:47.596Z,62.85
2019-03-26T21:09:38.533Z,63.21
2019-03-26T21:12:29.467Z,63.57
2019-03-26T21:15:12.996Z,63.64
2019-03-26T21:18:04.030Z,63.80
2019-03-26T21:20:46.824Z,63.68
2019-03-26T21:23:31.379Z,63.95
2019-03-26T21:26:22.303Z,63.92
2019-03-26T21:29:13.216Z,64.11
2019-03-26T21:31:56.275Z,64.03
2019-03-26T21:34:47.217Z,64.22
2019-03-26T21:37:30.482Z,64.03
2019-03-26T21:40:21.495Z,64.14
2019-03-26T21:43:04.919Z,64.19
2019-03-26T21:45:55.866Z,64.15
2019-03-26T21:48:38.882Z,64.42
2019-03-26T21:51:10.920Z,64.53
2019-03-26T21:53:54.305Z,64.85
2019-03-26T21:56:45.217Z,64.91
2019-03-26T21:59:28.877Z,64.75
2019-03-26T22:02:19.780Z,64.63
2019-03-26T22:05:02.951Z,64.76
2019-03-26T22:07:53.843Z,64.81
2019-03-26T22:10:37.396Z,64.90
2019-03-26T22:13:28.278Z,65.00
2019-03-26T22:16:11.951Z,65.02
2019-03-26T22:19:02.885Z,65.14
2019-03-26T22:21:45.764Z,65.16
2019-03-26T22:24:36.691Z,65.16
2019-03-26T22:27:20.041Z,65.38
2019-03-26T22:33:39.409Z,65.39
2019-03-26T22:36:30.316Z,65.46
2019-03-26T22:39:21.222Z,65.55
2019-03-26T22:42:04.255Z,65.68
2019-03-26T22:44:55.199Z,65.81
2019-03-26T22:47:38.394Z,65.91
2019-03-26T22:50:29.292Z,65.93
2019-03-26T22:53:12.855Z,66.14
2019-03-26T22:56:03.910Z,66.25
2019-03-26T22:58:46.749Z,66.38
2019-03-26T23:01:37.661Z,66.45
2019-03-26T23:04:20.579Z,66.61
2019-03-26T23:07:11.482Z,66.69
2019-03-26T23:09:54.640Z,66.84
2019-03-26T23:12:45.559Z,67.00
2019-03-26T23:15:29.315Z,67.19
2019-03-26T23:18:12.273Z,67.40
2019-03-26T23:21:03.180Z,67.60
2019-03-26T23:23:46.713Z,67.81
2019-03-26T23:26:37.618Z,68.00
2019-03-26T23:29:20.512Z,68.17
2019-03-26T23:32:11.476Z,68.38
2019-03-26T23:34:55.038Z,68.55
2019-03-26T23:37:45.994Z,68.76
2019-03-26T23:40:29.554Z,68.93
2019-03-26T23:43:20.432Z,69.15
2019-03-26T23:46:04.011Z,69.28
2019-03-26T23:48:54.937Z,69.39
2019-03-26T23:51:38.706Z,69.51
2019-03-26T23:54:29.668Z,69.69
2019-03-26T23:57:13.352Z,69.83
